Decoded Metar for WSSS (SINGAPORE in SINGAPORE) (IATA:SIN) | Meteo·Mobile Aviation Weather
aviador You're here:

WSSS Decoded Metar

SINGAPORE in SINGAPORE
Report Time2019-09-21 08:30:00
UTC Time2019-09-21 08:55:11
Flight Rules vfr VFR
Wind160° at 12 kt
W.Decomp.*RWY 20: 9.2 kt HW 7.7 kt LCW
Visibility8000 m
Phenomena:N/A
Clouds:Few 022 Hf
Broken 300 Hf
Expected CloudBase > 5,600 ft AGL from Temp-Dew spread
Ceiling30,000 ft
Temp33°C (ISA +18)
Dew Point19°C (44% RH)
Heat Index34.7°C
AAT32.0°C
QNH1008 hPa
Density Alt2,572 ft
Elevation52 ft
Report Wrong Elevation
Raw Report
METAR WSSS 210830Z 16012KT 130V210 8000 FEW022 BKN300 33/19 Q1008 NOSIG=

Extra information for WSSS:More info

Metar Taf Metar & Taf Last 4 Metars F.Rules Stats Wind Profile Meteogram Temp Stats Airport Information Weather charts Add Link Nearby VenuesMetar ALERT Operation Metar Decoded Social comments